Time;durP1;ratioP1;P1;durP2;ratioP2;P2;SDS_P1;SDS_P2;PMS_P1;PMS_P2;Temp;Humidity;BMP_temperature;BMP_pressure;BME280_temperature;BME280_humidity;BME280_pressure;Samples;Min_cycle;Max_cycle;Signal;HPM_P1;HPM_P2
2023/03/05 00:01:09;;;;;;;0.90;0.90;;;;;;;;;;4997024;28;20750;-84
2023/03/05 00:03:35;;;;;;;0.90;0.90;;;;;;;;;;4996966;28;20229;-85
2023/03/05 00:06:02;;;;;;;0.90;0.90;;;;;;;;;;4997135;28;20184;-86
2023/03/05 00:08:28;;;;;;;0.90;0.90;;;;;;;;;;4997315;28;20257;-85
2023/03/05 00:10:55;;;;;;;0.80;0.80;;;;;;;;;;4997953;28;20244;-86
2023/03/05 00:13:21;;;;;;;0.90;0.90;;;;;;;;;;4997924;28;20197;-86
2023/03/05 00:15:47;;;;;;;0.80;0.80;;;;;;;;;;4998032;28;20403;-85
2023/03/05 00:18:13;;;;;;;0.80;0.80;;;;;;;;;;4997956;28;20547;-85
2023/03/05 00:20:39;;;;;;;0.90;0.90;;;;;;;;;;4997690;28;20181;-85
2023/03/05 00:23:05;;;;;;;0.97;0.97;;;;;;;;;;4998043;28;20219;-86
2023/03/05 00:25:31;;;;;;;0.90;0.90;;;;;;;;;;4997755;28;20197;-86
2023/03/05 00:27:57;;;;;;;0.90;0.90;;;;;;;;;;4998442;28;20549;-86
2023/03/05 00:30:23;;;;;;;0.90;0.90;;;;;;;;;;4998534;28;20207;-85
2023/03/05 00:32:49;;;;;;;0.90;0.90;;;;;;;;;;5013612;28;20189;-85
2023/03/05 00:35:15;;;;;;;0.90;0.90;;;;;;;;;;5018520;28;20578;-85
2023/03/05 00:37:41;;;;;;;0.90;0.90;;;;;;;;;;5018665;28;20167;-84
2023/03/05 00:40:07;;;;;;;0.90;0.90;;;;;;;;;;5018778;28;20224;-84
2023/03/05 00:42:37;;;;;;;0.90;0.90;;;;;;;;;;5005164;28;20251;-85
2023/03/05 00:45:03;;;;;;;0.87;0.87;;;;;;;;;;4997070;28;20671;-85
2023/03/05 00:47:29;;;;;;;0.80;0.80;;;;;;;;;;4996085;28;20169;-86
2023/03/05 00:49:55;;;;;;;0.80;0.80;;;;;;;;;;4996409;28;20195;-86
2023/03/05 00:52:21;;;;;;;0.80;0.80;;;;;;;;;;4993972;28;20197;-85
2023/03/05 00:54:47;;;;;;;0.90;0.90;;;;;;;;;;4996477;28;20755;-85
2023/03/05 00:57:13;;;;;;;0.80;0.80;;;;;;;;;;4997251;28;20315;-84
2023/03/05 00:59:39;;;;;;;0.80;0.80;;;;;;;;;;5018911;28;20169;-84
2023/03/05 01:02:05;;;;;;;0.80;0.80;;;;;;;;;;5018963;28;20165;-84
2023/03/05 01:04:31;;;;;;;0.80;0.80;;;;;;;;;;5019073;28;20169;-82
2023/03/05 01:06:57;;;;;;;0.93;0.93;;;;;;;;;;5018507;28;20262;-84
2023/03/05 01:09:26;;;;;;;0.90;0.90;;;;;;;;;;5003267;28;20185;-84
2023/03/05 01:11:52;;;;;;;0.90;0.90;;;;;;;;;;4994397;28;20181;-84
2023/03/05 01:14:19;;;;;;;0.90;0.90;;;;;;;;;;4995642;28;20216;-86
2023/03/05 01:16:45;;;;;;;1.00;1.00;;;;;;;;;;4996138;28;20209;-85
2023/03/05 01:19:11;;;;;;;0.80;0.80;;;;;;;;;;4996277;28;20177;-87
2023/03/05 01:21:37;;;;;;;0.90;0.90;;;;;;;;;;4996215;28;20549;-86
2023/03/05 01:24:03;;;;;;;0.83;0.83;;;;;;;;;;4999019;28;20227;-86
2023/03/05 01:26:29;;;;;;;1.00;1.00;;;;;;;;;;5003378;28;20261;-84
2023/03/05 01:28:55;;;;;;;0.90;0.90;;;;;;;;;;5003617;28;20576;-85
2023/03/05 01:31:22;;;;;;;1.00;1.00;;;;;;;;;;5004508;28;20177;-84
2023/03/05 01:33:47;;;;;;;0.90;0.90;;;;;;;;;;4997975;28;20208;-86
2023/03/05 01:36:15;;;;;;;0.90;0.90;;;;;;;;;;4995981;28;20205;-85
2023/03/05 01:38:42;;;;;;;0.90;0.90;;;;;;;;;;4996185;28;20312;-85
2023/03/05 01:41:09;;;;;;;0.90;0.90;;;;;;;;;;4995188;28;20244;-86
2023/03/05 01:43:35;;;;;;;0.90;0.90;;;;;;;;;;4995430;28;20558;-85
2023/03/05 01:46:19;;;;;;;0.90;0.90;;;;;;;;;;4996908;28;20264;-86
2023/03/05 01:48:47;;;;;;;0.80;0.80;;;;;;;;;;4996219;28;20275;-86
2023/03/05 01:51:13;;;;;;;0.80;0.80;;;;;;;;;;4996370;28;20208;-86
2023/03/05 01:53:39;;;;;;;0.90;0.90;;;;;;;;;;4995783;28;20204;-86
2023/03/05 01:56:05;;;;;;;1.00;1.00;;;;;;;;;;4997389;28;20249;-86
2023/03/05 01:58:31;;;;;;;0.90;0.90;;;;;;;;;;5003823;28;20181;-85
2023/03/05 02:00:57;;;;;;;0.90;0.90;;;;;;;;;;5016856;28;20249;-85
2023/03/05 02:03:24;;;;;;;0.80;0.80;;;;;;;;;;5015165;28;20200;-84
2023/03/05 02:05:50;;;;;;;0.80;0.80;;;;;;;;;;4995087;28;20181;-85
2023/03/05 02:08:18;;;;;;;0.87;0.87;;;;;;;;;;4993407;28;20169;-84
2023/03/05 02:10:51;;;;;;;0.90;0.90;;;;;;;;;;4994101;28;20185;-85
2023/03/05 02:13:20;;;;;;;0.90;0.90;;;;;;;;;;4993171;28;20193;-85
2023/03/05 02:15:48;;;;;;;0.90;0.90;;;;;;;;;;4994147;28;20220;-85
2023/03/05 02:18:14;;;;;;;0.90;0.90;;;;;;;;;;4993747;28;20193;-85
2023/03/05 02:20:43;;;;;;;0.90;0.90;;;;;;;;;;4993713;28;20248;-84
2023/03/05 02:23:09;;;;;;;0.90;0.90;;;;;;;;;;4993745;28;20240;-85
2023/03/05 02:25:35;;;;;;;0.80;0.80;;;;;;;;;;4997485;28;20256;-85
2023/03/05 02:28:03;;;;;;;0.80;0.80;;;;;;;;;;4982395;28;20228;-84
2023/03/05 02:30:30;;;;;;;0.80;0.80;;;;;;;;;;4994735;28;20249;-85
2023/03/05 02:32:56;;;;;;;0.90;0.90;;;;;;;;;;4993895;28;20232;-85
2023/03/05 02:35:22;;;;;;;0.90;0.90;;;;;;;;;;4994409;28;20223;-85
2023/03/05 02:37:48;;;;;;;0.80;0.80;;;;;;;;;;4994322;28;20216;-85
2023/03/05 02:40:15;;;;;;;0.90;0.90;;;;;;;;;;4994820;28;20231;-85
2023/03/05 02:42:41;;;;;;;0.90;0.90;;;;;;;;;;4993655;28;20680;-85
2023/03/05 02:45:07;;;;;;;0.83;0.83;;;;;;;;;;4994158;28;20189;-86
2023/03/05 02:47:33;;;;;;;0.80;0.80;;;;;;;;;;4994325;28;20205;-85
2023/03/05 02:49:59;;;;;;;0.90;0.90;;;;;;;;;;4994676;28;20540;-86
2023/03/05 02:52:25;;;;;;;0.90;0.90;;;;;;;;;;4993863;28;20201;-85
2023/03/05 02:54:52;;;;;;;0.80;0.80;;;;;;;;;;4994817;28;20220;-86
2023/03/05 02:57:18;;;;;;;1.00;1.00;;;;;;;;;;4994842;28;20195;-85
2023/03/05 02:59:45;;;;;;;0.90;0.90;;;;;;;;;;4995069;28;20700;-86
2023/03/05 03:02:11;;;;;;;1.00;1.00;;;;;;;;;;4994744;28;20186;-86
2023/03/05 03:04:37;;;;;;;0.80;0.80;;;;;;;;;;4996582;28;20177;-87
2023/03/05 03:07:03;;;;;;;1.00;1.00;;;;;;;;;;4995971;28;20204;-87
2023/03/05 03:09:29;;;;;;;1.00;1.00;;;;;;;;;;4995209;28;20184;-86
2023/03/05 03:11:55;;;;;;;0.90;0.90;;;;;;;;;;4994638;28;20178;-87
2023/03/05 03:14:22;;;;;;;0.90;0.90;;;;;;;;;;4994197;28;20213;-86
2023/03/05 03:16:48;;;;;;;0.90;0.90;;;;;;;;;;4995354;28;20183;-87
2023/03/05 03:19:14;;;;;;;0.90;0.90;;;;;;;;;;4995076;28;20181;-87
2023/03/05 03:21:40;;;;;;;0.90;0.90;;;;;;;;;;4997233;28;20173;-86
2023/03/05 03:24:06;;;;;;;0.83;0.83;;;;;;;;;;4998818;28;20213;-85
2023/03/05 03:26:32;;;;;;;0.90;0.90;;;;;;;;;;4999007;28;20260;-85
2023/03/05 03:28:58;;;;;;;0.90;0.90;;;;;;;;;;4999101;28;20181;-85
2023/03/05 03:31:24;;;;;;;0.90;0.90;;;;;;;;;;4997777;28;20189;-85
2023/03/05 03:33:50;;;;;;;0.90;0.90;;;;;;;;;;4997741;28;20190;-86
2023/03/05 03:36:16;;;;;;;0.90;0.90;;;;;;;;;;4998141;28;20272;-86
2023/03/05 03:38:42;;;;;;;0.80;0.80;;;;;;;;;;4999482;28;20263;-85
2023/03/05 03:41:08;;;;;;;0.83;0.83;;;;;;;;;;4999296;28;20181;-85
2023/03/05 03:43:35;;;;;;;0.80;0.80;;;;;;;;;;4998312;28;20208;-85
2023/03/05 03:46:03;;;;;;;0.80;0.80;;;;;;;;;;4998017;28;20562;-85
2023/03/05 03:48:29;;;;;;;0.90;0.90;;;;;;;;;;4998487;28;20177;-85
2023/03/05 03:50:55;;;;;;;0.87;0.87;;;;;;;;;;4998366;28;20204;-85
2023/03/05 03:53:21;;;;;;;0.87;0.87;;;;;;;;;;4998147;28;20193;-85
2023/03/05 03:55:47;;;;;;;0.83;0.83;;;;;;;;;;4999210;28;20235;-86
2023/03/05 03:58:13;;;;;;;0.90;0.90;;;;;;;;;;4999154;28;20184;-85
2023/03/05 04:00:40;;;;;;;0.90;0.90;;;;;;;;;;5001632;28;20177;-86
2023/03/05 04:03:06;;;;;;;0.90;0.90;;;;;;;;;;5019108;28;20193;-85
2023/03/05 04:05:32;;;;;;;0.90;0.90;;;;;;;;;;5020353;28;20208;-86
2023/03/05 04:08:00;;;;;;;0.90;0.90;;;;;;;;;;5020102;28;20162;-86
2023/03/05 04:10:26;;;;;;;0.87;0.87;;;;;;;;;;5000629;28;20192;-86
2023/03/05 04:12:52;;;;;;;0.90;0.90;;;;;;;;;;4998362;28;20193;-85
2023/03/05 04:15:18;;;;;;;0.90;0.90;;;;;;;;;;4998344;28;20354;-85
2023/03/05 04:17:44;;;;;;;0.90;0.90;;;;;;;;;;4998431;28;20181;-85
2023/03/05 04:20:10;;;;;;;0.90;0.90;;;;;;;;;;4998868;28;20655;-85
2023/03/05 04:22:37;;;;;;;0.80;0.80;;;;;;;;;;4997515;28;20212;-85
2023/03/05 04:25:05;;;;;;;0.80;0.80;;;;;;;;;;4998239;28;20184;-85
2023/03/05 04:27:32;;;;;;;0.90;0.90;;;;;;;;;;4998326;28;20184;-86
2023/03/05 04:29:58;;;;;;;0.87;0.87;;;;;;;;;;4998385;28;20192;-85
2023/03/05 04:32:28;;;;;;;0.80;0.80;;;;;;;;;;4997375;28;20197;-85
2023/03/05 04:34:55;;;;;;;0.90;0.90;;;;;;;;;;4998575;28;20282;-85
2023/03/05 04:37:20;;;;;;;0.80;0.80;;;;;;;;;;4998300;28;20699;-86
2023/03/05 04:39:46;;;;;;;0.87;0.87;;;;;;;;;;4999314;28;20185;-86
2023/03/05 04:42:12;;;;;;;0.80;0.80;;;;;;;;;;4998354;28;20185;-86
2023/03/05 04:44:39;;;;;;;0.90;0.90;;;;;;;;;;4998505;28;20264;-86
2023/03/05 04:47:05;;;;;;;0.80;0.80;;;;;;;;;;4998245;28;20740;-86
2023/03/05 04:49:31;;;;;;;0.90;0.90;;;;;;;;;;4999112;28;20209;-86
2023/03/05 04:51:57;;;;;;;0.80;0.80;;;;;;;;;;4998401;28;20284;-86
2023/03/05 04:54:23;;;;;;;0.83;0.83;;;;;;;;;;4998306;28;20204;-86
2023/03/05 04:56:49;;;;;;;0.90;0.90;;;;;;;;;;4998635;28;20185;-86
2023/03/05 04:59:15;;;;;;;0.83;0.83;;;;;;;;;;4998741;28;20300;-86
2023/03/05 05:01:42;;;;;;;0.83;0.83;;;;;;;;;;4998965;28;20263;-85
2023/03/05 05:04:08;;;;;;;0.97;0.97;;;;;;;;;;4998614;28;20205;-85
2023/03/05 05:06:34;;;;;;;0.87;0.87;;;;;;;;;;4999636;28;20177;-86
2023/03/05 05:09:00;;;;;;;0.90;0.90;;;;;;;;;;4999135;28;20187;-86
2023/03/05 05:11:26;;;;;;;0.90;0.90;;;;;;;;;;4998255;28;20239;-85
2023/03/05 05:13:52;;;;;;;0.90;0.90;;;;;;;;;;4998692;28;20216;-85
2023/03/05 05:16:18;;;;;;;1.00;1.00;;;;;;;;;;4999541;28;20260;-86
2023/03/05 05:18:44;;;;;;;0.90;0.90;;;;;;;;;;4999741;28;20252;-86
2023/03/05 05:21:11;;;;;;;0.90;0.90;;;;;;;;;;5000811;28;20204;-86
2023/03/05 05:23:37;;;;;;;0.90;0.90;;;;;;;;;;4999311;28;20223;-86
2023/03/05 05:26:04;;;;;;;0.90;0.90;;;;;;;;;;5000842;28;20181;-86
2023/03/05 05:28:30;;;;;;;0.90;0.90;;;;;;;;;;5001287;28;20188;-85
2023/03/05 05:30:56;;;;;;;0.90;0.90;;;;;;;;;;5001884;28;20557;-86
2023/03/05 05:33:23;;;;;;;1.00;1.00;;;;;;;;;;5001219;28;20284;-86
2023/03/05 05:35:49;;;;;;;0.80;0.80;;;;;;;;;;5015136;28;20212;-86
2023/03/05 05:38:15;;;;;;;0.90;0.90;;;;;;;;;;5015659;28;20181;-85
2023/03/05 05:40:41;;;;;;;0.80;0.80;;;;;;;;;;5004335;28;20738;-86
2023/03/05 05:43:07;;;;;;;0.87;0.87;;;;;;;;;;4999117;28;20197;-85
2023/03/05 05:45:33;;;;;;;0.90;0.90;;;;;;;;;;5001155;28;20185;-86
2023/03/05 05:47:59;;;;;;;0.80;0.80;;;;;;;;;;5000718;28;20644;-86
2023/03/05 05:50:26;;;;;;;0.90;0.90;;;;;;;;;;5002199;28;20180;-86
2023/03/05 05:52:52;;;;;;;0.80;0.80;;;;;;;;;;5001016;28;20240;-87
2023/03/05 05:55:18;;;;;;;0.90;0.90;;;;;;;;;;4999520;28;20212;-86
2023/03/05 05:57:44;;;;;;;0.90;0.90;;;;;;;;;;4999121;28;20184;-86
2023/03/05 06:00:12;;;;;;;0.80;0.80;;;;;;;;;;5000172;28;20181;-86
2023/03/05 06:02:38;;;;;;;0.90;0.90;;;;;;;;;;5000483;28;20201;-86
2023/03/05 06:05:05;;;;;;;0.90;0.90;;;;;;;;;;5001251;28;20193;-86
2023/03/05 06:07:30;;;;;;;0.90;0.90;;;;;;;;;;5012313;28;20169;-86
2023/03/05 06:09:57;;;;;;;0.80;0.80;;;;;;;;;;5017440;28;20188;-86
2023/03/05 06:12:23;;;;;;;0.80;0.80;;;;;;;;;;5017344;28;20208;-86
2023/03/05 06:14:49;;;;;;;0.90;0.90;;;;;;;;;;5017383;28;20208;-86
2023/03/05 06:17:15;;;;;;;0.90;0.90;;;;;;;;;;4999174;28;20192;-86
2023/03/05 06:19:41;;;;;;;0.87;0.87;;;;;;;;;;4998903;28;20196;-86
2023/03/05 06:22:06;;;;;;;0.90;0.90;;;;;;;;;;4998160;28;20197;-86
2023/03/05 06:24:32;;;;;;;0.90;0.90;;;;;;;;;;4997972;28;20192;-86
2023/03/05 06:26:58;;;;;;;0.90;0.90;;;;;;;;;;4998244;28;20547;-86
2023/03/05 06:29:24;;;;;;;0.80;0.80;;;;;;;;;;4998309;28;20188;-86
2023/03/05 06:31:50;;;;;;;1.00;1.00;;;;;;;;;;5014200;23;20233;-86
2023/03/05 06:34:16;;;;;;;0.80;0.80;;;;;;;;;;4993257;28;20213;-86
2023/03/05 06:36:43;;;;;;;0.80;0.80;;;;;;;;;;5001526;28;20213;-86
2023/03/05 06:39:09;;;;;;;0.80;0.80;;;;;;;;;;5014011;28;20235;-87
2023/03/05 06:41:35;;;;;;;0.80;0.80;;;;;;;;;;5016848;28;20221;-87
2023/03/05 06:44:02;;;;;;;0.90;0.90;;;;;;;;;;5017304;28;20194;-86
2023/03/05 06:46:32;;;;;;;0.80;0.80;;;;;;;;;;5012201;28;20280;-87
2023/03/05 06:48:59;;;;;;;0.80;0.80;;;;;;;;;;5011640;28;20343;-86
2023/03/05 06:51:26;;;;;;;0.93;0.93;;;;;;;;;;5017960;28;20212;-87
2023/03/05 06:53:53;;;;;;;0.90;0.90;;;;;;;;;;5016909;28;20273;-85
2023/03/05 06:56:19;;;;;;;0.80;0.80;;;;;;;;;;5015916;28;20185;-86
2023/03/05 06:58:46;;;;;;;0.83;0.83;;;;;;;;;;5005128;28;20181;-85
2023/03/05 07:01:13;;;;;;;0.80;0.80;;;;;;;;;;4995824;28;20181;-84
2023/03/05 07:03:39;;;;;;;0.80;0.80;;;;;;;;;;4996541;28;20220;-85
2023/03/05 07:06:05;;;;;;;0.80;0.80;;;;;;;;;;4998022;28;20197;-85
2023/03/05 07:08:32;;;;;;;0.90;0.90;;;;;;;;;;5003315;28;20181;-84
2023/03/05 07:10:58;;;;;;;0.90;0.90;;;;;;;;;;5002676;28;20173;-85
2023/03/05 07:13:24;;;;;;;0.80;0.80;;;;;;;;;;4998696;28;20228;-85
2023/03/05 07:15:50;;;;;;;0.83;0.83;;;;;;;;;;4999982;28;20224;-84
2023/03/05 07:18:16;;;;;;;0.80;0.80;;;;;;;;;;4998330;28;20177;-86
2023/03/05 07:20:42;;;;;;;0.97;0.97;;;;;;;;;;4999414;28;20196;-83
2023/03/05 07:23:08;;;;;;;0.90;0.90;;;;;;;;;;4997973;28;20197;-88
2023/03/05 07:25:37;;;;;;;0.80;0.80;;;;;;;;;;4998362;28;20193;-86
2023/03/05 07:28:07;;;;;;;0.90;0.90;;;;;;;;;;5002706;28;20177;-86
2023/03/05 07:30:33;;;;;;;0.93;0.93;;;;;;;;;;5004702;28;20253;-86
2023/03/05 07:33:00;;;;;;;0.80;0.80;;;;;;;;;;5003966;28;20209;-86
2023/03/05 07:35:26;;;;;;;0.83;0.83;;;;;;;;;;5002716;28;20213;-87
2023/03/05 07:37:54;;;;;;;0.90;0.90;;;;;;;;;;5004042;28;20184;-87
2023/03/05 07:40:21;;;;;;;0.90;0.90;;;;;;;;;;5003493;28;20667;-86
2023/03/05 07:42:47;;;;;;;1.00;1.00;;;;;;;;;;5002382;28;20638;-87
2023/03/05 07:45:13;;;;;;;0.90;0.90;;;;;;;;;;5002057;28;20208;-89
2023/03/05 07:47:39;;;;;;;0.90;0.90;;;;;;;;;;5002569;28;20177;-85
2023/03/05 07:50:05;;;;;;;0.90;0.90;;;;;;;;;;5002259;28;20304;-85
2023/03/05 07:52:31;;;;;;;0.90;0.90;;;;;;;;;;5001627;28;20204;-85
2023/03/05 07:54:57;;;;;;;0.90;0.90;;;;;;;;;;5000816;28;20213;-83
2023/03/05 07:57:23;;;;;;;0.83;0.83;;;;;;;;;;5000910;28;20243;-85
2023/03/05 07:59:49;;;;;;;0.90;0.90;;;;;;;;;;5001508;28;20187;-83
2023/03/05 08:02:15;;;;;;;0.90;0.90;;;;;;;;;;5000546;28;20287;-85
2023/03/05 08:04:42;;;;;;;0.90;0.90;;;;;;;;;;5000876;28;20239;-86
2023/03/05 08:07:08;;;;;;;0.90;0.90;;;;;;;;;;4999660;28;20644;-83
2023/03/05 08:09:34;;;;;;;0.90;0.90;;;;;;;;;;4999835;28;20720;-85
2023/03/05 08:12:00;;;;;;;0.90;0.90;;;;;;;;;;4999579;28;20204;-84
2023/03/05 08:14:26;;;;;;;0.90;0.90;;;;;;;;;;4997735;28;20703;-83
2023/03/05 08:16:52;;;;;;;0.90;0.90;;;;;;;;;;4995619;28;20201;-85
2023/03/05 08:19:18;;;;;;;0.90;0.90;;;;;;;;;;4999885;28;20189;-85
2023/03/05 08:21:45;;;;;;;0.90;0.90;;;;;;;;;;4999729;28;21325;-88
2023/03/05 08:24:11;;;;;;;0.80;0.80;;;;;;;;;;4997848;28;20203;-84
2023/03/05 08:26:38;;;;;;;0.77;0.77;;;;;;;;;;4998142;28;20181;-84
2023/03/05 08:29:04;;;;;;;0.90;0.90;;;;;;;;;;4998926;28;20204;-85
2023/03/05 08:31:31;;;;;;;0.90;0.90;;;;;;;;;;4999861;28;20236;-84
2023/03/05 08:33:58;;;;;;;0.80;0.80;;;;;;;;;;4999044;28;20307;-86
2023/03/05 08:36:24;;;;;;;0.90;0.90;;;;;;;;;;5001184;28;20636;-85
2023/03/05 08:38:50;;;;;;;0.80;0.80;;;;;;;;;;4999809;28;20169;-83
2023/03/05 08:41:17;;;;;;;0.80;0.80;;;;;;;;;;5000200;28;20181;-86
2023/03/05 08:43:43;;;;;;;0.87;0.87;;;;;;;;;;4998800;28;20221;-83
2023/03/05 08:46:10;;;;;;;0.80;0.80;;;;;;;;;;5000548;28;20244;-84
2023/03/05 08:48:36;;;;;;;0.83;0.83;;;;;;;;;;4999756;28;20228;-82
2023/03/05 08:51:09;;;;;;;0.90;0.90;;;;;;;;;;5001805;28;20173;-86
2023/03/05 08:53:35;;;;;;;0.90;0.90;;;;;;;;;;4998997;28;20300;-88
2023/03/05 08:56:01;;;;;;;0.90;0.90;;;;;;;;;;5000878;28;20209;-87
2023/03/05 08:58:27;;;;;;;0.90;0.90;;;;;;;;;;5001029;28;20208;-85
2023/03/05 09:00:53;;;;;;;0.90;0.90;;;;;;;;;;5000807;28;20204;-84
2023/03/05 09:03:19;;;;;;;0.80;0.80;;;;;;;;;;5000747;28;20352;-85
2023/03/05 09:05:45;;;;;;;0.90;0.90;;;;;;;;;;5001395;28;20207;-87
2023/03/05 09:08:11;;;;;;;0.80;0.80;;;;;;;;;;4998063;28;20256;-86
2023/03/05 09:10:37;;;;;;;0.77;0.77;;;;;;;;;;4996798;28;20803;-85
2023/03/05 09:13:03;;;;;;;0.80;0.80;;;;;;;;;;4997730;28;20224;-86
2023/03/05 09:15:30;;;;;;;0.90;0.90;;;;;;;;;;4996014;28;20216;-85
2023/03/05 09:17:56;;;;;;;0.80;0.80;;;;;;;;;;4996682;28;20188;-87
2023/03/05 09:20:23;;;;;;;0.77;0.77;;;;;;;;;;5016479;28;20191;-85
2023/03/05 09:22:48;;;;;;;0.80;0.80;;;;;;;;;;5012630;28;20202;-87
2023/03/05 09:25:14;;;;;;;0.80;0.80;;;;;;;;;;4996471;28;20187;-87
2023/03/05 09:27:42;;;;;;;0.80;0.80;;;;;;;;;;4996252;28;20177;-85
2023/03/05 09:30:09;;;;;;;0.80;0.80;;;;;;;;;;4996023;28;20181;-85
2023/03/05 09:32:35;;;;;;;0.80;0.80;;;;;;;;;;4995522;28;20228;-84
2023/03/05 09:35:01;;;;;;;0.80;0.80;;;;;;;;;;4994602;28;20213;-86
2023/03/05 09:37:28;;;;;;;0.70;0.70;;;;;;;;;;4994522;28;20628;-88
2023/03/05 09:39:54;;;;;;;0.80;0.80;;;;;;;;;;5010079;28;20184;-85
2023/03/05 09:42:44;;;;;;;0.70;0.70;;;;;;;;;;5007016;28;20229;-86
2023/03/05 09:45:25;;;;;;;0.70;0.70;;;;;;;;;;4995579;28;20186;-86
2023/03/05 09:47:51;;;;;;;0.73;0.73;;;;;;;;;;4998184;28;20262;-87
2023/03/05 09:50:35;;;;;;;0.70;0.70;;;;;;;;;;5008918;28;20165;-87
2023/03/05 09:53:23;;;;;;;0.67;0.67;;;;;;;;;;5015786;28;20206;-83
2023/03/05 09:55:53;;;;;;;0.80;0.80;;;;;;;;;;5001704;28;20247;-83
2023/03/05 09:58:39;;;;;;;0.70;0.70;;;;;;;;;;4998804;28;20535;-86
2023/03/05 10:01:22;;;;;;;0.70;0.70;;;;;;;;;;4979039;28;20231;-86
2023/03/05 10:03:51;;;;;;;0.70;0.70;;;;;;;;;;4997413;28;20219;-87
2023/03/05 10:06:22;;;;;;;0.70;0.70;;;;;;;;;;4999713;28;20548;-86
2023/03/05 10:08:48;;;;;;;0.70;0.70;;;;;;;;;;4994912;28;20188;-83
2023/03/05 10:11:27;;;;;;;0.80;0.80;;;;;;;;;;4994388;28;20192;-86
2023/03/05 10:13:53;;;;;;;0.70;0.70;;;;;;;;;;4998211;28;20192;-85
2023/03/05 10:16:19;;;;;;;0.73;0.73;;;;;;;;;;5008519;28;20206;-86
2023/03/05 10:19:06;;;;;;;0.60;0.60;;;;;;;;;;5017544;28;20208;-90
2023/03/05 10:21:39;;;;;;;0.80;0.80;;;;;;;;;;5018182;28;20165;-87
2023/03/05 10:24:16;;;;;;;0.80;0.80;;;;;;;;;;4995786;28;20200;-85
2023/03/05 10:26:48;;;;;;;0.80;0.80;;;;;;;;;;4992848;28;20525;-81
2023/03/05 10:29:21;;;;;;;0.70;0.70;;;;;;;;;;4986731;28;20180;-84
2023/03/05 10:32:05;;;;;;;0.70;0.70;;;;;;;;;;5001353;28;20192;-83
2023/03/05 10:34:50;;;;;;;0.70;0.70;;;;;;;;;;5002059;28;20227;-82
2023/03/05 10:37:22;;;;;;;0.77;0.77;;;;;;;;;;5001478;28;20228;-80
2023/03/05 10:39:56;;;;;;;0.70;0.70;;;;;;;;;;5001595;28;20260;-80
2023/03/05 10:42:42;;;;;;;0.73;0.73;;;;;;;;;;5005498;28;20201;-84
2023/03/05 10:45:13;;;;;;;0.70;0.70;;;;;;;;;;5004617;28;20845;-84
2023/03/05 10:47:45;;;;;;;0.70;0.70;;;;;;;;;;5007131;28;20205;-84
2023/03/05 10:50:15;;;;;;;0.70;0.70;;;;;;;;;;5005750;28;20180;-79
2023/03/05 10:52:45;;;;;;;0.60;0.60;;;;;;;;;;5002058;28;20276;-81
2023/03/05 10:55:14;;;;;;;0.80;0.80;;;;;;;;;;5001246;28;20240;-80
2023/03/05 10:57:40;;;;;;;0.80;0.80;;;;;;;;;;5000755;28;20231;-80
2023/03/05 11:00:05;;;;;;;0.80;0.80;;;;;;;;;;4999688;28;20170;-80
2023/03/05 11:02:32;;;;;;;0.70;0.70;;;;;;;;;;4999810;28;20710;-78
2023/03/05 11:04:58;;;;;;;0.80;0.80;;;;;;;;;;4999294;28;20177;-78
2023/03/05 11:07:24;;;;;;;0.67;0.67;;;;;;;;;;5000630;28;20177;-80
2023/03/05 11:10:00;;;;;;;0.73;0.73;;;;;;;;;;4999816;28;20184;-77
2023/03/05 11:12:27;;;;;;;0.70;0.70;;;;;;;;;;4999849;28;20203;-82
2023/03/05 11:15:02;;;;;;;0.80;0.80;;;;;;;;;;5001422;28;20621;-82
2023/03/05 11:17:33;;;;;;;0.80;0.80;;;;;;;;;;5003088;28;20211;-81
2023/03/05 11:20:19;;;;;;;0.80;0.80;;;;;;;;;;5004112;28;20195;-82
2023/03/05 11:23:02;;;;;;;0.80;0.80;;;;;;;;;;4992859;28;20193;-82
2023/03/05 11:25:28;;;;;;;0.60;0.60;;;;;;;;;;5003669;28;20173;-81
2023/03/05 11:27:55;;;;;;;0.80;0.80;;;;;;;;;;5003482;28;20177;-81
2023/03/05 11:30:25;;;;;;;0.67;0.67;;;;;;;;;;5002819;28;20177;-82
2023/03/05 11:33:06;;;;;;;0.80;0.80;;;;;;;;;;5003200;28;20212;-81
2023/03/05 11:35:34;;;;;;;0.80;0.80;;;;;;;;;;5003946;28;20209;-81
2023/03/05 11:38:01;;;;;;;0.70;0.70;;;;;;;;;;5008994;28;20177;-81
2023/03/05 11:40:29;;;;;;;0.80;0.80;;;;;;;;;;5010673;28;20184;-81
2023/03/05 11:42:56;;;;;;;0.70;0.70;;;;;;;;;;5010707;28;20185;-81
2023/03/05 11:45:23;;;;;;;0.80;0.80;;;;;;;;;;5012888;28;20181;-82
2023/03/05 11:47:50;;;;;;;0.80;0.80;;;;;;;;;;5013594;28;20181;-81
2023/03/05 11:50:24;;;;;;;0.70;0.70;;;;;;;;;;5012875;28;20170;-82
2023/03/05 11:52:55;;;;;;;0.80;0.80;;;;;;;;;;5013018;28;20193;-82
2023/03/05 11:55:26;;;;;;;0.80;0.80;;;;;;;;;;5012237;28;20201;-82
2023/03/05 11:57:52;;;;;;;0.70;0.70;;;;;;;;;;5001389;28;20675;-81
2023/03/05 12:00:21;;;;;;;0.77;0.77;;;;;;;;;;5001591;28;20177;-81
2023/03/05 12:02:50;;;;;;;0.70;0.70;;;;;;;;;;5003077;28;20200;-81
2023/03/05 12:05:16;;;;;;;0.70;0.70;;;;;;;;;;5013464;28;20188;-82
2023/03/05 12:07:46;;;;;;;0.70;0.70;;;;;;;;;;5008931;28;20711;-79
2023/03/05 12:10:16;;;;;;;0.70;0.70;;;;;;;;;;4997723;28;20640;-80
2023/03/05 12:12:45;;;;;;;0.80;0.80;;;;;;;;;;4996713;28;20189;-80
2023/03/05 12:15:11;;;;;;;0.70;0.70;;;;;;;;;;4999909;28;20621;-80
2023/03/05 12:17:56;;;;;;;0.83;0.83;;;;;;;;;;4996879;28;20331;-79
2023/03/05 12:20:22;;;;;;;0.80;0.80;;;;;;;;;;4998358;28;20212;-81
2023/03/05 12:22:49;;;;;;;0.80;0.80;;;;;;;;;;4999016;28;20220;-80
2023/03/05 12:25:18;;;;;;;0.80;0.80;;;;;;;;;;4999090;28;20180;-81
2023/03/05 12:27:45;;;;;;;0.70;0.70;;;;;;;;;;4994271;28;20255;-81
2023/03/05 12:30:29;;;;;;;0.70;0.70;;;;;;;;;;5000708;28;20185;-81
2023/03/05 12:32:55;;;;;;;0.70;0.70;;;;;;;;;;4991849;28;20228;-80
2023/03/05 12:35:23;;;;;;;0.80;0.80;;;;;;;;;;5000136;28;20232;-82
2023/03/05 12:37:49;;;;;;;0.80;0.80;;;;;;;;;;5002307;28;20182;-84
2023/03/05 12:40:15;;;;;;;0.80;0.80;;;;;;;;;;5000475;28;20194;-82
2023/03/05 12:42:51;;;;;;;0.80;0.80;;;;;;;;;;5001287;28;20300;-82
2023/03/05 12:45:18;;;;;;;0.90;0.90;;;;;;;;;;5002153;28;20165;-79
2023/03/05 12:48:10;;;;;;;0.80;0.80;;;;;;;;;;5001885;28;20181;-79
2023/03/05 12:50:36;;;;;;;0.90;0.90;;;;;;;;;;5001679;28;20189;-77
2023/03/05 12:53:08;;;;;;;0.80;0.80;;;;;;;;;;4999585;28;20208;-79
2023/03/05 12:55:36;;;;;;;0.80;0.80;;;;;;;;;;5000221;28;20232;-78
2023/03/05 12:58:04;;;;;;;0.80;0.80;;;;;;;;;;4999486;28;20214;-80
2023/03/05 13:00:40;;;;;;;0.90;0.90;;;;;;;;;;5000651;28;20201;-80
2023/03/05 13:03:09;;;;;;;0.80;0.80;;;;;;;;;;5000867;28;20201;-79
2023/03/05 13:05:38;;;;;;;0.80;0.80;;;;;;;;;;5000853;28;20181;-79
2023/03/05 13:08:20;;;;;;;0.77;0.77;;;;;;;;;;5004362;28;20181;-79
2023/03/05 13:10:51;;;;;;;0.80;0.80;;;;;;;;;;5004487;28;20181;-79
2023/03/05 13:13:17;;;;;;;0.90;0.90;;;;;;;;;;5003044;28;20611;-80
2023/03/05 13:15:46;;;;;;;0.80;0.80;;;;;;;;;;5002312;28;20243;-79
2023/03/05 13:18:18;;;;;;;0.80;0.80;;;;;;;;;;5003300;28;20162;-80
2023/03/05 13:20:44;;;;;;;0.70;0.70;;;;;;;;;;4992703;28;20174;-79
2023/03/05 13:23:21;;;;;;;0.80;0.80;;;;;;;;;;5004070;28;20735;-79
2023/03/05 13:25:59;;;;;;;0.80;0.80;;;;;;;;;;5004608;28;20180;-81
2023/03/05 13:28:25;;;;;;;0.70;0.70;;;;;;;;;;5004755;28;20180;-81
2023/03/05 13:30:52;;;;;;;0.80;0.80;;;;;;;;;;5003443;28;20245;-81
2023/03/05 13:33:21;;;;;;;0.73;0.73;;;;;;;;;;5004471;28;20224;-81
2023/03/05 13:35:47;;;;;;;0.80;0.80;;;;;;;;;;5001288;28;20217;-81
2023/03/05 13:38:20;;;;;;;0.80;0.80;;;;;;;;;;4999487;28;20573;-81
2023/03/05 13:40:59;;;;;;;0.70;0.70;;;;;;;;;;4999657;28;20178;-81
2023/03/05 13:43:25;;;;;;;0.80;0.80;;;;;;;;;;4998910;28;20228;-81
2023/03/05 13:45:55;;;;;;;0.70;0.70;;;;;;;;;;4998244;28;20177;-81
2023/03/05 13:48:21;;;;;;;0.80;0.80;;;;;;;;;;4999054;28;20184;-80
2023/03/05 13:50:53;;;;;;;0.70;0.70;;;;;;;;;;5003980;28;20184;-79
2023/03/05 13:53:30;;;;;;;0.73;0.73;;;;;;;;;;5010272;28;20264;-79
2023/03/05 13:55:58;;;;;;;0.73;0.73;;;;;;;;;;5010607;28;20239;-81
2023/03/05 13:58:43;;;;;;;0.80;0.80;;;;;;;;;;4999871;28;20184;-80
2023/03/05 14:01:20;;;;;;;0.80;0.80;;;;;;;;;;5007761;28;20188;-80
2023/03/05 14:03:50;;;;;;;0.70;0.70;;;;;;;;;;5007022;28;20196;-79
2023/03/05 14:06:18;;;;;;;0.80;0.80;;;;;;;;;;5007790;28;20188;-82
2023/03/05 14:08:48;;;;;;;0.70;0.70;;;;;;;;;;5001221;28;20651;-80
2023/03/05 14:11:15;;;;;;;0.80;0.80;;;;;;;;;;4998122;28;20177;-79
2023/03/05 14:13:42;;;;;;;0.73;0.73;;;;;;;;;;4996665;28;20201;-80
2023/03/05 14:16:24;;;;;;;0.80;0.80;;;;;;;;;;4997208;28;20279;-79
2023/03/05 14:18:57;;;;;;;0.90;0.90;;;;;;;;;;4998497;28;20575;-79
2023/03/05 14:21:24;;;;;;;0.80;0.80;;;;;;;;;;4998444;28;20185;-80
2023/03/05 14:23:52;;;;;;;0.67;0.67;;;;;;;;;;4998027;28;20189;-79
2023/03/05 14:26:18;;;;;;;0.80;0.80;;;;;;;;;;4998597;28;20600;-79
2023/03/05 14:28:49;;;;;;;0.70;0.70;;;;;;;;;;4998328;28;20656;-80
2023/03/05 14:31:16;;;;;;;0.87;0.87;;;;;;;;;;4998833;28;20177;-80
2023/03/05 14:33:43;;;;;;;0.70;0.70;;;;;;;;;;4998615;28;20272;-80
2023/03/05 14:36:10;;;;;;;0.80;0.80;;;;;;;;;;4998216;28;20583;-81
2023/03/05 14:38:38;;;;;;;0.70;0.70;;;;;;;;;;4999868;28;20180;-81
2023/03/05 14:41:23;;;;;;;0.80;0.80;;;;;;;;;;4999115;28;20316;-80
2023/03/05 14:43:49;;;;;;;0.80;0.80;;;;;;;;;;5000775;28;20696;-81
2023/03/05 14:46:15;;;;;;;0.80;0.80;;;;;;;;;;5001889;28;20251;-80
2023/03/05 14:48:41;;;;;;;0.80;0.80;;;;;;;;;;5000875;28;20181;-80